Time;durP1;ratioP1;P1;durP2;ratioP2;P2;SDS_P1;SDS_P2;PMS_P1;PMS_P2;Temp;Humidity;BMP_temperature;BMP_pressure;BME280_temperature;BME280_humidity;BME280_pressure;Samples;Min_cycle;Max_cycle;Signal;HPM_P1;HPM_P2
2021/05/01 00:00:41;;;;;;;3.37;2.50;;;;;;;6.67;95.84;92868.02;1849216;77;21416;-78
2021/05/01 00:03:10;;;;;;;5.28;2.70;;;;;;;6.68;96.35;92858.75;1826174;77;21130;-81
2021/05/01 00:05:40;;;;;;;3.77;2.87;;;;;;;6.73;96.38;92863.80;1837524;76;21159;-81
2021/05/01 00:08:07;;;;;;;5.12;2.70;;;;;;;6.74;95.97;92863.98;1867852;75;21155;-80
2021/05/01 00:10:36;;;;;;;5.50;2.62;;;;;;;6.75;95.81;92854.72;1802695;78;21067;-82
2021/05/01 00:13:05;;;;;;;6.22;2.87;;;;;;;6.78;95.83;92862.06;1830402;76;21463;-78
2021/05/01 00:15:33;;;;;;;9.88;5.28;;;;;;;6.83;96.23;92864.95;1818410;78;21727;-81
2021/05/01 00:18:00;;;;;;;6.92;3.90;;;;;;;6.88;96.24;92865.91;1799613;79;21197;-81
2021/05/01 00:20:28;;;;;;;26.00;12.33;;;;;;;6.89;96.44;92867.48;1799335;79;21193;-78
2021/05/01 00:22:56;;;;;;;18.98;10.23;;;;;;;6.91;96.31;92871.91;1799290;79;21181;-81
2021/05/01 00:25:23;;;;;;;15.83;9.53;;;;;;;6.92;96.54;92876.73;1799215;79;21504;-80
2021/05/01 00:27:50;;;;;;;19.80;10.58;;;;;;;6.96;96.83;92876.19;1843363;76;21435;-81
2021/05/01 00:30:18;;;;;;;17.10;10.00;;;;;;;7.00;97.32;92875.02;1843166;76;21058;-80
2021/05/01 00:32:46;;;;;;;14.63;8.98;;;;;;;7.06;97.57;92871.34;1810754;79;21189;-81
2021/05/01 00:35:13;;;;;;;14.55;8.70;;;;;;;7.13;97.67;92869.23;1810761;79;21631;-81
2021/05/01 00:37:41;;;;;;;11.73;5.92;;;;;;;7.14;97.29;92872.89;1811275;79;21611;-81
2021/05/01 00:40:10;;;;;;;9.95;5.95;;;;;;;7.11;96.69;92864.77;1811190;79;21188;-82
2021/05/01 00:42:38;;;;;;;9.90;7.70;;;;;;;7.04;96.69;92870.39;1811484;79;21180;-79
2021/05/01 00:45:07;;;;;;;13.00;5.58;;;;;;;7.01;96.97;92869.80;1823451;77;21562;-78
2021/05/01 00:47:34;;;;;;;7.37;4.10;;;;;;;7.01;96.79;92861.69;1873474;76;21776;-82
2021/05/01 00:50:02;;;;;;;5.67;3.22;;;;;;;6.97;96.40;92854.75;1838986;78;21780;-82
2021/05/01 00:52:31;;;;;;;4.95;3.15;;;;;;;6.96;96.49;92864.02;1873498;76;21127;-80
2021/05/01 00:54:59;;;;;;;5.58;3.62;;;;;;;6.91;96.19;92865.16;1858371;76;21236;-81
2021/05/01 00:57:26;;;;;;;8.55;3.52;;;;;;;6.84;95.97;92865.72;1847753;77;21171;-79
2021/05/01 00:59:54;;;;;;;11.12;7.80;;;;;;;6.79;96.29;92870.94;1848001;77;21040;-82
2021/05/01 01:02:23;;;;;;;10.88;6.65;;;;;;;6.79;96.37;92876.34;1847498;77;21221;-80
2021/05/01 01:04:50;;;;;;;10.13;6.20;;;;;;;6.80;96.75;92877.30;1847561;77;21669;-74
2021/05/01 01:07:18;;;;;;;7.65;5.10;;;;;;;6.87;96.99;92887.94;1846796;77;21123;-82
2021/05/01 01:09:46;;;;;;;16.93;6.87;;;;;;;6.83;96.49;92898.73;1847961;77;21143;-80
2021/05/01 01:12:13;;;;;;;10.05;6.62;;;;;;;6.86;96.63;92891.22;1848376;77;21091;-80
2021/05/01 01:14:41;;;;;;;13.53;7.15;;;;;;;6.90;96.63;92891.22;1847930;77;21348;-83
2021/05/01 01:17:08;;;;;;;6.58;3.98;;;;;;;6.93;96.78;92899.34;1847221;77;21599;-79
2021/05/01 01:19:38;;;;;;;4.50;3.77;;;;;;;6.93;95.76;92901.27;1847538;77;21192;-79
2021/05/01 01:22:16;;;;;;;6.80;4.35;;;;;;;6.73;94.52;92893.52;1847405;77;21175;-79
2021/05/01 01:24:44;;;;;;;9.70;6.12;;;;;;;6.51;94.71;92898.09;1847650;77;21170;-84
2021/05/01 01:27:11;;;;;;;6.78;4.00;;;;;;;6.38;95.50;92899.59;1814835;77;21214;-83
2021/05/01 01:29:41;;;;;;;6.50;3.80;;;;;;;6.39;96.49;92905.75;1847386;77;21740;-82
2021/05/01 01:32:10;;;;;;;7.33;3.90;;;;;;;6.38;96.50;92904.22;1847807;77;21171;-81
2021/05/01 01:34:43;;;;;;;6.00;4.03;;;;;;;6.37;96.62;92902.67;1847300;77;21053;-84
2021/05/01 01:37:11;;;;;;;7.10;3.90;;;;;;;6.35;97.00;92919.24;1848012;77;21099;-82
2021/05/01 01:39:41;;;;;;;6.58;4.37;;;;;;;6.40;97.44;92913.49;1847769;77;21834;-84
2021/05/01 01:42:10;;;;;;;3.85;3.55;;;;;;;6.43;97.56;92911.39;1833285;76;21146;-79
2021/05/01 01:44:37;;;;;;;7.87;3.50;;;;;;;6.44;98.06;92904.05;1809960;79;21104;-82
2021/05/01 01:47:05;;;;;;;7.97;3.70;;;;;;;6.50;97.99;92907.91;1783082;77;21234;-80
2021/05/01 01:49:35;;;;;;;6.30;3.20;;;;;;;6.49;97.43;92905.80;1818242;78;21164;-81
2021/05/01 01:52:02;;;;;;;11.97;3.58;;;;;;;6.45;97.37;92892.86;1844285;77;21340;-84
2021/05/01 01:54:31;;;;;;;4.45;3.52;;;;;;;6.40;97.57;92898.64;1844526;77;21431;-84
2021/05/01 01:57:01;;;;;;;5.15;2.75;;;;;;;6.40;97.18;92901.34;1844613;77;21174;-83
2021/05/01 01:59:29;;;;;;;3.65;2.62;;;;;;;6.37;96.72;92907.50;1841553;77;21204;-82
2021/05/01 02:01:57;;;;;;;5.55;2.40;;;;;;;6.30;96.54;92913.64;1845823;77;21168;-79
2021/05/01 02:04:25;;;;;;;4.95;2.77;;;;;;;6.26;97.13;92908.03;1794623;77;21348;-80
2021/05/01 02:06:52;;;;;;;3.75;3.27;;;;;;;6.22;97.33;92897.80;1840270;76;21175;-80
2021/05/01 02:09:21;;;;;;;6.95;3.17;;;;;;;6.19;97.69;92899.90;1881399;76;21159;-84
2021/05/01 02:11:50;;;;;;;8.30;2.92;;;;;;;6.23;97.97;92888.54;1881213;76;21143;-84
2021/05/01 02:14:17;;;;;;;3.27;2.50;;;;;;;6.21;97.64;92884.88;1815549;79;21595;-79
2021/05/01 02:16:46;;;;;;;7.55;2.77;;;;;;;6.19;97.21;92881.77;1816835;79;22314;-81
2021/05/01 02:19:13;;;;;;;4.33;2.37;;;;;;;6.14;96.94;92886.78;1816127;79;21173;-81
2021/05/01 02:21:41;;;;;;;3.95;2.70;;;;;;;6.03;96.89;92890.78;1834961;76;21108;-80
2021/05/01 02:24:09;;;;;;;6.20;2.92;;;;;;;5.92;97.31;92884.52;1866439;76;21590;-82
2021/05/01 02:26:37;;;;;;;5.45;3.25;;;;;;;5.85;98.27;92894.70;1839345;78;21156;-82
2021/05/01 02:29:05;;;;;;;4.62;3.42;;;;;;;5.86;99.17;92897.59;1843819;77;21618;-80
2021/05/01 02:31:32;;;;;;;5.03;3.37;;;;;;;5.92;99.84;92898.02;1839508;76;21546;-81
2021/05/01 02:34:00;;;;;;;5.53;3.20;;;;;;;5.98;99.75;92902.72;1873102;76;21178;-80
2021/05/01 02:36:27;;;;;;;6.17;2.77;;;;;;;6.00;99.01;92899.63;1837134;77;21134;-84
2021/05/01 02:38:55;;;;;;;3.35;2.58;;;;;;;6.02;98.94;92885.95;1866376;76;21919;-80
2021/05/01 02:41:24;;;;;;;6.37;2.62;;;;;;;6.04;98.61;92890.39;1847931;76;21339;-81
2021/05/01 02:43:52;;;;;;;4.35;2.83;;;;;;;6.03;98.04;92891.55;1813706;77;21541;-80
2021/05/01 02:46:19;;;;;;;4.10;2.72;;;;;;;6.00;97.65;92887.48;1844312;76;21152;-80
2021/05/01 02:48:47;;;;;;;6.80;2.80;;;;;;;5.95;97.50;92887.85;1863885;76;21140;-80
2021/05/01 02:51:15;;;;;;;5.53;3.33;;;;;;;5.88;97.72;92895.30;1832393;78;21152;-80
2021/05/01 02:53:42;;;;;;;10.03;5.05;;;;;;;5.85;97.86;92889.30;1839658;78;22233;-82
2021/05/01 02:56:09;;;;;;;11.38;6.10;;;;;;;5.91;98.47;92889.73;1873416;76;21143;-80
2021/05/01 02:58:37;;;;;;;12.13;6.87;;;;;;;6.01;98.76;92890.37;1855178;76;21147;-81
2021/05/01 03:01:05;;;;;;;14.50;8.30;;;;;;;6.07;99.09;92888.86;1842424;77;21456;-80
2021/05/01 03:03:33;;;;;;;11.00;6.50;;;;;;;6.07;99.53;92890.98;1842277;77;21542;-79
2021/05/01 03:06:00;;;;;;;9.35;6.17;;;;;;;6.11;99.74;92892.93;1841706;77;22743;-80
2021/05/01 03:08:27;;;;;;;16.42;7.20;;;;;;;6.08;99.44;92889.83;1847735;77;21488;-82
2021/05/01 03:10:55;;;;;;;15.10;7.50;;;;;;;6.08;99.49;92898.50;1848033;77;21629;-82
2021/05/01 03:13:23;;;;;;;14.53;8.15;;;;;;;6.12;99.62;92898.52;1847865;77;21689;-78
2021/05/01 03:15:50;;;;;;;19.70;7.33;;;;;;;6.13;99.67;92896.01;1848167;77;21155;-82
2021/05/01 03:18:17;;;;;;;11.93;6.03;;;;;;;6.11;99.58;92895.05;1847797;77;21848;-84
2021/05/01 03:20:45;;;;;;;6.30;4.00;;;;;;;6.11;99.52;92893.70;1847406;77;21048;-82
2021/05/01 03:23:13;;;;;;;3.30;3.00;;;;;;;6.09;98.27;92886.55;1848186;77;21566;-81
2021/05/01 03:25:40;;;;;;;4.85;2.83;;;;;;;5.95;97.54;92892.67;1847555;77;21122;-78
2021/05/01 03:28:08;;;;;;;5.00;3.50;;;;;;;5.82;97.62;92891.41;1847616;77;21036;-80
2021/05/01 03:30:35;;;;;;;4.30;2.75;;;;;;;5.75;97.81;92895.41;1847701;77;21345;-82
2021/05/01 03:33:03;;;;;;;5.37;2.55;;;;;;;5.72;98.36;92897.53;1847208;77;21104;-79
2021/05/01 03:35:30;;;;;;;3.62;2.90;;;;;;;5.73;98.42;92891.75;1846283;77;21183;-79
2021/05/01 03:37:57;;;;;;;2.52;2.33;;;;;;;5.74;98.42;92898.69;1846819;77;21641;-84
2021/05/01 03:40:26;;;;;;;4.58;3.05;;;;;;;5.73;98.76;92894.45;1848074;77;21161;-79
2021/05/01 03:42:54;;;;;;;3.50;3.10;;;;;;;5.75;99.25;92888.66;1847151;77;22183;-77
2021/05/01 03:45:21;;;;;;;4.30;3.90;;;;;;;5.80;99.81;92903.16;1847655;77;21191;-85
2021/05/01 03:47:50;;;;;;;6.97;3.20;;;;;;;5.86;99.80;92886.80;1844112;77;21195;-82
2021/05/01 03:50:18;;;;;;;3.35;2.87;;;;;;;5.91;99.49;92901.30;1843271;76;21056;-77
2021/05/01 03:52:46;;;;;;;8.30;3.60;;;;;;;5.97;99.86;92893.62;1844723;77;21160;-81
2021/05/01 03:55:13;;;;;;;5.70;3.10;;;;;;;6.04;100.00;92889.03;1846908;77;21618;-82
2021/05/01 03:57:42;;;;;;;4.40;3.37;;;;;;;6.16;100.00;92887.92;1845665;77;21124;-80
2021/05/01 04:00:11;;;;;;;6.87;4.28;;;;;;;6.29;100.00;92899.18;1847594;77;21092;-80
2021/05/01 04:02:39;;;;;;;7.25;3.40;;;;;;;6.37;99.51;92893.23;1847643;77;21167;-84
2021/05/01 04:05:09;;;;;;;4.97;2.85;;;;;;;6.41;98.90;92902.11;1848170;77;21472;-82
2021/05/01 04:07:36;;;;;;;4.72;3.45;;;;;;;6.49;98.86;92905.80;1847200;77;21353;-78
2021/05/01 04:10:05;;;;;;;9.83;3.20;;;;;;;6.60;98.33;92909.11;1847767;77;21194;-80
2021/05/01 04:12:33;;;;;;;5.80;3.35;;;;;;;6.66;97.53;92911.65;1848171;77;21111;-79
2021/05/01 04:15:00;;;;;;;5.80;3.12;;;;;;;6.68;97.31;92914.73;1844232;77;21596;-82
2021/05/01 04:17:28;;;;;;;5.47;3.05;;;;;;;6.69;97.00;92912.98;1841622;77;21183;-80
2021/05/01 04:19:56;;;;;;;6.03;2.90;;;;;;;6.68;97.10;92917.42;1841576;77;21341;-83
2021/05/01 04:22:23;;;;;;;3.95;2.65;;;;;;;6.71;97.04;92912.62;1843669;77;21163;-81
2021/05/01 04:24:50;;;;;;;3.80;2.90;;;;;;;6.70;97.39;92906.45;1847917;77;21162;-79
2021/05/01 04:27:19;;;;;;;7.08;3.10;;;;;;;6.78;97.62;92913.41;1847105;77;21123;-79
2021/05/01 04:29:46;;;;;;;10.40;3.70;;;;;;;6.85;97.35;92909.95;1848024;77;21175;-81
2021/05/01 04:32:14;;;;;;;6.72;4.78;;;;;;;6.90;97.16;92912.27;1847559;77;22216;-78
2021/05/01 04:34:41;;;;;;;11.00;6.30;;;;;;;6.96;97.56;92914.80;1847859;77;21103;-82
2021/05/01 04:37:09;;;;;;;7.72;6.45;;;;;;;7.01;98.22;92907.65;1847302;77;21140;-82
2021/05/01 04:39:37;;;;;;;8.78;6.15;;;;;;;7.11;99.06;92911.53;1848156;77;21032;-80
2021/05/01 04:42:06;;;;;;;9.00;5.67;;;;;;;7.25;99.07;92910.16;1848020;77;21142;-83
2021/05/01 04:44:35;;;;;;;7.00;5.47;;;;;;;7.46;100.00;92901.88;1845453;77;21644;-83
2021/05/01 04:47:03;;;;;;;14.43;6.92;;;;;;;7.65;99.49;92910.17;1865636;76;21642;-83
2021/05/01 04:49:32;;;;;;;7.65;6.05;;;;;;;7.79;99.16;92904.73;1864930;76;21210;-82
2021/05/01 04:52:01;;;;;;;10.82;7.00;;;;;;;7.88;98.77;92898.91;1842508;77;21155;-82
2021/05/01 04:54:29;;;;;;;9.18;6.28;;;;;;;7.92;98.95;92904.50;1846850;77;21641;-82
2021/05/01 04:56:56;;;;;;;7.53;6.47;;;;;;;7.94;99.05;92904.13;1846675;77;21350;-84
2021/05/01 04:59:23;;;;;;;6.45;5.67;;;;;;;7.93;98.50;92904.69;1847458;77;21135;-79
2021/05/01 05:01:52;;;;;;;7.20;6.50;;;;;;;7.95;99.24;92896.20;1846552;77;21183;-81
2021/05/01 05:04:20;;;;;;;5.72;5.03;;;;;;;8.01;100.00;92895.97;1847940;77;21186;-81
2021/05/01 05:06:48;;;;;;;7.50;4.58;;;;;;;8.13;100.00;92898.27;1847256;77;21450;-84
2021/05/01 05:09:15;;;;;;;5.03;4.33;;;;;;;8.27;99.92;92895.52;1847821;77;22427;-81
2021/05/01 05:11:43;;;;;;;6.67;4.53;;;;;;;8.39;99.18;92897.64;1847583;77;21127;-81
2021/05/01 05:14:10;;;;;;;8.93;5.50;;;;;;;8.45;99.16;92892.75;1847796;77;21291;-81
2021/05/01 05:16:37;;;;;;;8.28;5.33;;;;;;;8.55;98.81;92891.75;1848086;77;21119;-80
2021/05/01 05:19:05;;;;;;;6.92;5.90;;;;;;;8.63;98.84;92887.25;1848018;77;21127;-80
2021/05/01 05:21:35;;;;;;;6.87;4.72;;;;;;;8.70;98.27;92876.38;1847778;77;22136;-80
2021/05/01 05:24:04;;;;;;;8.55;6.72;;;;;;;8.81;98.15;92876.91;1848000;77;21191;-79
2021/05/01 05:26:31;;;;;;;5.15;3.75;;;;;;;8.94;98.01;92876.02;1848141;77;21128;-84
2021/05/01 05:28:59;;;;;;;3.70;3.40;;;;;;;9.12;96.93;92881.92;1847369;77;21127;-81
2021/05/01 05:31:27;;;;;;;6.42;5.30;;;;;;;9.33;95.78;92878.30;1848226;77;21092;-83
2021/05/01 05:33:55;;;;;;;4.00;3.45;;;;;;;9.44;94.46;92886.53;1847706;77;21400;-83
2021/05/01 05:36:23;;;;;;;5.55;4.22;;;;;;;9.53;93.95;92890.13;1847881;77;21178;-80
2021/05/01 05:38:53;;;;;;;5.45;4.72;;;;;;;9.62;93.41;92900.52;1847143;77;21195;-80
2021/05/01 05:41:23;;;;;;;6.80;5.28;;;;;;;9.66;93.22;92895.83;1846732;77;21175;-82
2021/05/01 05:43:50;;;;;;;7.92;5.25;;;;;;;9.72;93.30;92897.72;1846599;77;21772;-80
2021/05/01 05:46:18;;;;;;;7.62;4.83;;;;;;;9.85;93.42;92896.61;1846260;77;21752;-81
2021/05/01 05:48:46;;;;;;;6.65;5.28;;;;;;;10.14;94.06;92899.05;1846895;77;21155;-82
2021/05/01 05:51:14;;;;;;;7.08;5.72;;;;;;;10.58;93.04;92898.78;1846113;77;21174;-82
2021/05/01 05:53:41;;;;;;;9.33;6.35;;;;;;;10.97;90.42;92896.14;1846360;77;21179;-83
2021/05/01 05:56:10;;;;;;;7.55;6.12;;;;;;;11.09;87.31;92877.30;1846593;77;21188;-82
2021/05/01 05:58:37;;;;;;;9.48;7.53;;;;;;;11.22;86.69;92880.83;1847595;77;21352;-83
2021/05/01 06:01:04;;;;;;;9.45;7.95;;;;;;;11.40;86.09;92890.86;1847794;77;21033;-85
2021/05/01 06:03:33;;;;;;;9.00;7.75;;;;;;;11.55;85.02;92897.61;1846889;77;21214;-80
2021/05/01 06:06:05;;;;;;;8.43;6.92;;;;;;;11.81;85.65;92897.38;1846579;77;21167;-79
2021/05/01 06:08:32;;;;;;;9.00;6.58;;;;;;;12.31;84.30;92893.02;1846413;77;21162;-78
2021/05/01 06:11:02;;;;;;;9.55;6.92;;;;;;;12.89;82.95;92893.41;1845847;77;21183;-79
2021/05/01 06:13:33;;;;;;;9.20;6.42;;;;;;;13.35;79.88;92888.34;1845998;77;21179;-83
2021/05/01 06:16:02;;;;;;;6.55;5.50;;;;;;;13.62;79.46;92882.47;1846057;77;21199;-81
2021/05/01 06:18:36;;;;;;;7.10;5.97;;;;;;;13.93;76.51;92878.17;1846880;77;21152;-81
2021/05/01 06:21:05;;;;;;;7.60;5.83;;;;;;;14.24;75.84;92872.30;1847151;77;21186;-78
2021/05/01 06:23:32;;;;;;;5.65;4.92;;;;;;;14.66;74.87;92862.18;1847135;77;21982;-80
2021/05/01 06:26:01;;;;;;;8.78;5.35;;;;;;;15.25;73.10;92861.45;1847547;77;21128;-85
2021/05/01 06:28:28;;;;;;;6.03;4.70;;;;;;;15.85;71.60;92857.42;1797116;77;21096;-83
2021/05/01 06:31:05;;;;;;;7.40;5.17;;;;;;;16.52;69.33;92853.58;1847146;77;21583;-83
2021/05/01 06:33:38;;;;;;;6.53;4.80;;;;;;;17.17;65.00;92859.64;1846635;77;21151;-83
2021/05/01 06:36:09;;;;;;;5.10;4.40;;;;;;;17.84;64.42;92861.60;1846290;77;21370;-83
2021/05/01 06:38:37;;;;;;;5.15;4.35;;;;;;;18.53;62.60;92855.55;1844361;77;21151;-82
2021/05/01 06:41:07;;;;;;;5.65;4.35;;;;;;;19.25;59.73;92853.78;1849120;76;21151;-78
2021/05/01 06:44:02;;;;;;;5.05;3.80;;;;;;;19.86;58.00;92856.64;1873722;76;21111;-83
2021/05/01 06:46:27;;;;;;;5.30;4.80;;;;;;;20.44;56.43;92855.95;1840942;77;21159;-79
2021/05/01 06:48:54;;;;;;;6.15;5.55;;;;;;;21.03;53.70;92847.80;1841166;77;21623;-85
2021/05/01 06:51:22;;;;;;;5.87;5.28;;;;;;;21.42;52.37;92839.42;1841676;77;21115;-82
2021/05/01 06:53:50;;;;;;;4.67;4.08;;;;;;;21.61;51.93;92840.59;1840794;77;21609;-79
2021/05/01 06:56:17;;;;;;;4.60;4.00;;;;;;;21.65;50.98;92844.68;1842058;77;21114;-82
2021/05/01 06:58:45;;;;;;;4.33;3.92;;;;;;;21.72;49.41;92847.68;1841690;77;21191;-80
2021/05/01 07:01:13;;;;;;;5.65;3.75;;;;;;;21.74;50.14;92846.56;1841752;77;22227;-82
2021/05/01 07:03:44;;;;;;;5.08;3.83;;;;;;;21.89;48.87;92846.53;1840025;77;21180;-82
2021/05/01 07:06:14;;;;;;;4.10;3.70;;;;;;;21.89;48.32;92843.77;1844146;77;21144;-82
2021/05/01 07:08:42;;;;;;;3.27;2.92;;;;;;;21.84;48.28;92845.20;1845649;77;21163;-80
2021/05/01 07:11:10;;;;;;;4.62;3.60;;;;;;;21.85;48.79;92839.80;1846139;77;21178;-81
2021/05/01 07:13:39;;;;;;;6.58;3.60;;;;;;;21.96;47.83;92831.66;1846196;77;21674;-83
2021/05/01 07:16:11;;;;;;;3.10;2.90;;;;;;;21.96;47.35;92828.14;1845606;77;21186;-79
2021/05/01 07:18:41;;;;;;;5.05;3.25;;;;;;;21.72;46.39;92825.55;1846644;77;21171;-80
2021/05/01 07:21:12;;;;;;;6.15;4.05;;;;;;;21.31;47.25;92826.14;1845944;77;21218;-80
2021/05/01 07:23:39;;;;;;;3.98;3.12;;;;;;;21.03;48.70;92820.16;1846172;77;21760;-81
2021/05/01 07:26:06;;;;;;;3.42;3.10;;;;;;;20.91;46.44;92814.31;1846563;77;21343;-83
2021/05/01 07:28:38;;;;;;;7.42;3.40;;;;;;;20.50;48.17;92809.92;1846309;77;21624;-83
2021/05/01 07:31:08;;;;;;;4.33;2.75;;;;;;;20.22;50.31;92814.85;1755879;81;21198;-79
2021/05/01 07:33:47;;;;;;;4.70;3.02;;;;;;;20.27;48.99;92814.22;1801569;79;21640;-81
2021/05/01 07:36:39;;;;;;;3.00;2.67;;;;;;;20.33;48.26;92813.70;1851636;76;21147;-83
2021/05/01 07:39:10;;;;;;;2.80;2.60;;;;;;;20.15;47.63;92820.73;1836090;76;21308;-83
2021/05/01 07:41:44;;;;;;;2.22;2.02;;;;;;;19.65;48.13;92825.31;1840404;77;21745;-80
2021/05/01 07:44:12;;;;;;;3.45;2.00;;;;;;;19.10;48.15;92821.98;1840363;77;21159;-80
2021/05/01 07:46:41;;;;;;;4.25;2.33;;;;;;;18.57;50.01;92818.23;1845321;77;21163;-83
2021/05/01 07:49:09;;;;;;;3.92;2.77;;;;;;;18.14;51.06;92810.45;1840587;77;21242;-83
2021/05/01 07:51:39;;;;;;;2.83;2.60;;;;;;;17.75;52.93;92814.20;1846062;77;21578;-81
2021/05/01 07:54:09;;;;;;;3.08;2.50;;;;;;;17.45;53.57;92808.33;1806270;77;21217;-80
2021/05/01 07:56:37;;;;;;;4.72;2.70;;;;;;;17.24;54.33;92811.29;1826643;76;21705;-84
2021/05/01 07:59:05;;;;;;;3.30;2.37;;;;;;;17.05;55.08;92813.81;1828535;77;21191;-81
2021/05/01 08:01:33;;;;;;;2.47;2.17;;;;;;;16.97;55.91;92807.06;1837372;77;21434;-84
2021/05/01 08:04:01;;;;;;;4.50;2.40;;;;;;;16.96;55.36;92815.91;1812601;77;21244;-80
2021/05/01 08:06:29;;;;;;;3.52;2.85;;;;;;;16.96;55.62;92811.79;1828958;77;21651;-79
2021/05/01 08:08:56;;;;;;;3.00;2.58;;;;;;;16.97;56.02;92810.56;1826009;78;21197;-81
2021/05/01 08:11:24;;;;;;;2.33;2.15;;;;;;;17.04;56.11;92815.61;1815351;78;21612;-79
2021/05/01 08:13:51;;;;;;;2.87;2.20;;;;;;;17.14;55.95;92813.84;1838210;77;21163;-83
2021/05/01 08:16:19;;;;;;;3.50;2.30;;;;;;;17.24;55.42;92811.29;1809219;78;21541;-80
2021/05/01 08:18:48;;;;;;;2.25;2.05;;;;;;;17.28;54.77;92817.27;1831029;78;21669;-82
2021/05/01 08:21:15;;;;;;;4.50;2.42;;;;;;;17.19;53.45;92814.64;1753101;80;21229;-82
2021/05/01 08:23:42;;;;;;;2.00;1.62;;;;;;;17.18;55.11;92806.83;1818196;78;21197;-84
2021/05/01 08:26:10;;;;;;;3.95;2.10;;;;;;;17.26;52.02;92805.95;1858523;76;21186;-81
2021/05/01 08:28:38;;;;;;;2.02;1.72;;;;;;;17.34;53.76;92809.94;1828712;78;22036;-84
2021/05/01 08:31:05;;;;;;;3.75;1.90;;;;;;;17.42;53.73;92817.47;1830345;77;21249;-83
2021/05/01 08:33:33;;;;;;;2.58;2.20;;;;;;;17.44;53.35;92814.26;1847376;77;21175;-79
2021/05/01 08:36:00;;;;;;;6.08;4.62;;;;;;;17.44;55.14;92812.27;1829766;77;21732;-82
2021/05/01 08:38:32;;;;;;;4.08;2.55;;;;;;;17.46;54.18;92820.08;1852493;76;21191;-83
2021/05/01 08:40:59;;;;;;;3.87;1.92;;;;;;;17.37;52.84;92813.92;1829499;78;21618;-85
2021/05/01 08:43:27;;;;;;;3.33;2.12;;;;;;;17.23;53.72;92812.52;1838182;78;22273;-81
2021/05/01 08:45:54;;;;;;;3.87;2.85;;;;;;;17.09;54.86;92814.44;1808044;78;21735;-83
2021/05/01 08:48:24;;;;;;;3.50;3.20;;;;;;;16.98;54.75;92820.94;1818840;78;21155;-82
2021/05/01 08:51:00;;;;;;;3.50;2.40;;;;;;;16.93;56.07;92822.91;1801708;78;21175;-79
2021/05/01 08:53:28;;;;;;;4.42;2.62;;;;;;;16.88;55.49;92822.09;1766210;80;21286;-79
2021/05/01 08:55:56;;;;;;;2.80;2.27;;;;;;;16.80;55.75;92827.70;1776692;80;21690;-83
2021/05/01 08:58:23;;;;;;;3.47;2.10;;;;;;;16.78;55.59;92824.66;1842373;77;21154;-82
2021/05/01 09:00:51;;;;;;;2.42;2.22;;;;;;;16.81;55.66;92822.36;1827506;77;21500;-81
2021/05/01 09:03:20;;;;;;;3.10;1.70;;;;;;;16.87;56.13;92826.07;1831591;77;21171;-84
2021/05/01 09:05:48;;;;;;;2.70;2.10;;;;;;;17.04;56.00;92818.36;1839884;77;21659;-85
2021/05/01 09:08:15;;;;;;;2.33;2.10;;;;;;;17.27;56.14;92806.88;1818325;77;21183;-83
2021/05/01 09:10:48;;;;;;;2.33;2.12;;;;;;;17.48;53.68;92817.02;1820283;77;21056;-82
2021/05/01 09:13:20;;;;;;;5.10;4.25;;;;;;;17.56;53.81;92806.50;1824287;77;21565;-83
2021/05/01 09:16:06;;;;;;;2.50;2.30;;;;;;;17.72;54.05;92808.23;1807765;78;21507;-84
2021/05/01 09:18:54;;;;;;;2.52;1.82;;;;;;;17.86;52.20;92809.65;1834076;77;21363;-83
2021/05/01 09:21:25;;;;;;;2.70;1.72;;;;;;;17.90;51.80;92810.27;1834434;77;21224;-83
2021/05/01 09:23:53;;;;;;;1.77;1.67;;;;;;;17.86;51.07;92810.41;1824629;77;21155;-80
2021/05/01 09:26:41;;;;;;;2.62;2.25;;;;;;;17.78;50.53;92809.17;1823528;77;21155;-82
2021/05/01 09:29:10;;;;;;;1.30;1.20;;;;;;;17.68;51.41;92799.38;1818136;78;21187;-81
2021/05/01 09:31:46;;;;;;;1.32;1.00;;;;;;;17.57;51.12;92797.66;1845133;77;21329;-80
2021/05/01 09:34:13;;;;;;;1.57;1.47;;;;;;;17.45;51.24;92806.95;1825268;77;21149;-84
2021/05/01 09:36:41;;;;;;;4.20;1.60;;;;;;;17.34;51.99;92801.70;1833020;77;21202;-83
2021/05/01 09:39:13;;;;;;;4.15;1.52;;;;;;;17.19;52.50;92802.28;1846021;77;21540;-85
2021/05/01 09:41:45;;;;;;;1.42;1.30;;;;;;;17.11;52.41;92805.73;1847361;77;21178;-83
2021/05/01 09:44:17;;;;;;;3.60;1.98;;;;;;;17.08;51.51;92807.42;1847371;77;21159;-82
2021/05/01 09:46:53;;;;;;;3.62;1.85;;;;;;;17.04;53.01;92807.38;1846742;77;21132;-79
2021/05/01 09:49:27;;;;;;;7.40;2.00;;;;;;;16.97;52.65;92800.95;1846564;77;21416;-82
2021/05/01 09:52:02;;;;;;;2.20;2.00;;;;;;;16.93;53.30;92789.34;1864302;76;21632;-79
2021/05/01 09:54:43;;;;;;;2.42;1.57;;;;;;;16.86;53.15;92806.70;1833238;77;21157;-80
2021/05/01 09:57:14;;;;;;;2.25;1.45;;;;;;;16.79;54.04;92804.98;1811191;79;21463;-81
2021/05/01 09:59:46;;;;;;;3.35;2.12;;;;;;;16.71;53.95;92789.96;1810795;76;21722;-80
2021/05/01 10:02:23;;;;;;;8.15;4.00;;;;;;;16.59;54.51;92808.05;1876105;76;21152;-80
2021/05/01 10:05:12;;;;;;;3.95;2.20;;;;;;;16.42;55.05;92809.44;1832112;76;21144;-82
2021/05/01 10:07:50;;;;;;;2.15;1.55;;;;;;;16.29;55.17;92798.54;1830705;77;21694;-84
2021/05/01 10:10:17;;;;;;;1.70;1.60;;;;;;;16.24;55.08;92799.86;1816407;77;21343;-82
2021/05/01 10:12:45;;;;;;;6.30;1.90;;;;;;;16.25;55.37;92804.15;1775868;80;21195;-82
2021/05/01 10:15:24;;;;;;;4.40;2.72;;;;;;;16.27;55.48;92800.34;1832944;76;21187;-81
2021/05/01 10:17:52;;;;;;;3.67;1.82;;;;;;;16.25;56.04;92812.98;1846476;76;21202;-81
2021/05/01 10:20:21;;;;;;;3.50;2.80;;;;;;;16.13;56.93;92805.55;1819468;78;21170;-79
2021/05/01 10:22:50;;;;;;;2.37;2.10;;;;;;;15.95;59.04;92826.14;1852942;76;21243;-84
2021/05/01 10:25:33;;;;;;;4.25;2.80;;;;;;;15.82;61.54;92835.61;1818626;77;21178;-83
2021/05/01 10:28:06;;;;;;;4.05;2.33;;;;;;;15.61;64.36;92846.04;1825920;77;21211;-79
2021/05/01 10:30:37;;;;;;;2.20;1.70;;;;;;;15.43;63.49;92864.41;1820204;77;21176;-85
2021/05/01 10:33:31;;;;;;;6.40;1.80;;;;;;;15.27;64.16;92861.19;1845957;76;21234;-85
2021/05/01 10:36:30;;;;;;;2.05;0.82;;;;;;;15.02;63.19;92875.61;1875984;76;21714;-78
2021/05/01 10:39:06;;;;;;;2.55;1.10;;;;;;;14.80;61.16;92876.83;1860382;76;21140;-82
2021/05/01 10:41:35;;;;;;;2.55;1.67;;;;;;;14.66;62.24;92889.54;1811311;79;21572;-80
2021/05/01 10:44:05;;;;;;;2.70;2.47;;;;;;;14.56;60.86;92883.78;1810694;79;21221;-80
2021/05/01 10:46:36;;;;;;;3.22;2.10;;;;;;;14.52;63.12;92896.80;1810679;79;21141;-81
2021/05/01 10:49:06;;;;;;;2.47;1.65;;;;;;;14.46;64.08;92898.48;1809848;79;21476;-79
2021/05/01 10:52:01;;;;;;;3.25;2.20;;;;;;;14.40;64.15;92898.23;1810542;79;22282;-81
2021/05/01 10:55:47;;;;;;;2.95;2.20;;;;;;;14.36;65.24;92905.00;1755699;79;21181;-82
2021/05/01 10:58:43;;;;;;;3.90;2.40;;;;;;;14.36;65.96;92901.66;1811072;79;21137;-84
2021/05/01 11:01:32;;;;;;;3.30;1.72;;;;;;;14.35;65.84;92906.97;1811016;79;21193;-79
2021/05/01 11:04:04;;;;;;;1.62;1.52;;;;;;;14.24;66.72;92911.34;1809956;79;21327;-81
2021/05/01 11:06:43;;;;;;;2.98;1.67;;;;;;;14.18;68.34;92917.77;1819695;76;21198;-79
2021/05/01 11:09:10;;;;;;;2.15;1.60;;;;;;;14.14;68.43;92921.98;1850806;76;21606;-81
2021/05/01 11:11:39;;;;;;;2.92;1.40;;;;;;;14.06;68.42;92920.59;1830100;78;21159;-78
2021/05/01 11:14:26;;;;;;;4.45;2.40;;;;;;;13.99;69.38;92913.37;1829720;77;21175;-81
2021/05/01 11:17:11;;;;;;;2.77;1.70;;;;;;;13.95;70.90;92909.92;1829753;77;21464;-81
2021/05/01 11:19:46;;;;;;;2.30;1.77;;;;;;;13.93;70.25;92897.91;1829689;78;21171;-80
2021/05/01 11:22:22;;;;;;;2.00;1.57;;;;;;;13.92;72.14;92899.88;1829312;78;21174;-79
2021/05/01 11:24:49;;;;;;;;;;;;;;;13.90;69.73;92886.45;1832581;77;21188;-81
2021/05/01 11:27:16;;;;;;;4.72;2.42;;;;;;;13.85;71.44;92880.92;1829901;77;20274;-82
2021/05/01 11:29:44;;;;;;;3.47;3.17;;;;;;;13.80;71.57;92875.37;1781237;78;22009;-80
2021/05/01 11:32:11;;;;;;;3.62;2.00;;;;;;;13.78;73.07;92875.63;1830273;78;21165;-84
2021/05/01 11:34:39;;;;;;;2.70;2.25;;;;;;;13.82;72.17;92866.73;1830883;78;21152;-82
2021/05/01 11:37:07;;;;;;;1.98;1.75;;;;;;;13.91;73.04;92863.39;1833716;78;21171;-85
2021/05/01 11:39:40;;;;;;;3.90;1.42;;;;;;;14.02;71.99;92857.81;1841235;77;21202;-83
2021/05/01 11:42:07;;;;;;;2.27;1.60;;;;;;;14.16;69.88;92855.92;1850083;77;21784;-83
2021/05/01 11:44:35;;;;;;;1.77;1.50;;;;;;;14.22;69.60;92858.31;1844049;77;21202;-79
2021/05/01 11:47:11;;;;;;;1.92;1.20;;;;;;;14.28;69.12;92862.80;1843754;77;21155;-86
2021/05/01 11:49:41;;;;;;;1.45;1.35;;;;;;;14.32;67.36;92846.30;1843715;77;21180;-81